Time;durP1;ratioP1;P1;durP2;ratioP2;P2;SDS_P1;SDS_P2;PMS_P1;PMS_P2;Temp;Humidity;BMP_temperature;BMP_pressure;BME280_temperature;BME280_humidity;BME280_pressure;Samples;Min_cycle;Max_cycle;Signal;HPM_P1;HPM_P2
2023/04/19 00:02:13;;;;;;;12.60;7.20;;;;;;;-143.84;91.99;43939.13;4971996;28;20505;-65
2023/04/19 00:04:40;;;;;;;8.30;6.70;;;;;;;-143.84;92.23;43901.06;4971779;28;20481;-64
2023/04/19 00:07:09;;;;;;;8.77;6.97;;;;;;;-143.84;92.17;43929.59;4972159;28;20507;-65
2023/04/19 00:09:36;;;;;;;10.50;6.70;;;;;;;-143.84;92.52;43922.00;4971625;28;20446;-64
2023/04/19 00:12:03;;;;;;;10.23;6.97;;;;;;;-143.84;92.26;43929.59;4971569;28;20450;-64
2023/04/19 00:14:30;;;;;;;14.47;6.57;;;;;;;-143.84;92.57;43922.00;4971780;28;20446;-64
2023/04/19 00:16:57;;;;;;;9.13;6.93;;;;;;;-143.84;92.30;43910.56;4971332;28;20486;-65
2023/04/19 00:19:24;;;;;;;13.05;7.30;;;;;;;-143.84;92.49;43937.22;4971464;28;20920;-64
2023/04/19 00:21:52;;;;;;;15.67;6.53;;;;;;;-143.84;92.51;43916.28;4971373;28;20691;-65
2023/04/19 00:24:20;;;;;;;12.43;8.77;;;;;;;-143.84;92.40;43922.00;4971443;28;20434;-65
2023/04/19 00:26:47;;;;;;;16.67;7.97;;;;;;;-143.84;92.32;43912.47;4970958;28;20452;-65
2023/04/19 00:29:14;;;;;;;10.43;7.17;;;;;;;-143.84;92.20;43902.97;4970969;28;20483;-65
2023/04/19 00:31:41;;;;;;;11.10;7.18;;;;;;;-143.84;92.52;43912.47;4971171;28;20453;-65
2023/04/19 00:34:08;;;;;;;13.03;7.17;;;;;;;-143.84;92.51;43918.19;4970888;28;20202;-64
2023/04/19 00:36:36;;;;;;;13.20;7.13;;;;;;;-143.84;92.83;43952.44;4970885;28;20505;-64
2023/04/19 00:39:03;;;;;;;10.40;7.37;;;;;;;-143.84;92.77;43912.47;4970991;28;20541;-65
2023/04/19 00:41:32;;;;;;;12.73;7.70;;;;;;;-143.84;92.94;43927.69;4971170;28;20426;-65
2023/04/19 00:43:59;;;;;;;12.63;8.10;;;;;;;-143.84;92.81;43931.50;4971071;28;20454;-65
2023/04/19 00:46:26;;;;;;;9.37;7.90;;;;;;;-143.84;93.20;43948.63;4970939;28;20995;-65
2023/04/19 00:48:54;;;;;;;15.20;8.27;;;;;;;-143.84;93.42;43954.34;4971093;28;20438;-65
2023/04/19 00:51:21;;;;;;;15.30;8.17;;;;;;;-143.84;93.56;43960.06;4970896;28;20584;-65
2023/04/19 00:53:48;;;;;;;18.63;9.30;;;;;;;-143.84;93.57;43960.06;4970961;28;21010;-65
2023/04/19 00:56:17;;;;;;;13.50;8.43;;;;;;;-143.84;93.22;43965.78;4971026;28;20496;-65
2023/04/19 00:58:46;;;;;;;13.43;8.97;;;;;;;-143.84;93.35;43975.28;4970726;28;20438;-65
2023/04/19 01:01:13;;;;;;;11.07;9.03;;;;;;;-143.84;93.79;43977.19;4970691;28;20468;-65
2023/04/19 01:03:41;;;;;;;16.10;8.73;;;;;;;-143.84;93.51;43971.47;4971028;28;20802;-64
2023/04/19 01:06:08;;;;;;;16.10;9.87;;;;;;;-143.84;93.71;43986.72;4970861;28;20509;-64
2023/04/19 01:08:35;;;;;;;17.20;9.90;;;;;;;-143.84;93.75;43981.00;4970729;28;21003;-64
2023/04/19 01:11:03;;;;;;;17.00;10.50;;;;;;;-143.84;93.88;43988.63;4970427;28;20488;-64
2023/04/19 01:13:30;;;;;;;14.70;11.00;;;;;;;-143.84;94.24;43990.53;4970944;28;20270;-64
2023/04/19 01:15:59;;;;;;;21.13;11.47;;;;;;;-143.84;94.04;43992.41;4970578;28;20454;-64
2023/04/19 01:18:31;;;;;;;19.27;10.83;;;;;;;-143.84;94.07;43988.63;4970402;28;20489;-64
2023/04/19 01:20:58;;;;;;;17.57;11.50;;;;;;;-143.84;94.46;44001.94;4970952;28;21282;-64
2023/04/19 01:23:27;;;;;;;22.80;11.82;;;;;;;-143.84;94.54;44013.38;4970785;28;21329;-64
2023/04/19 01:25:54;;;;;;;16.47;11.20;;;;;;;-143.84;94.59;44007.66;4970320;28;20279;-64
2023/04/19 01:28:21;;;;;;;24.30;12.80;;;;;;;-143.84;94.40;44005.75;4970014;28;20454;-64
2023/04/19 01:30:49;;;;;;;24.10;13.60;;;;;;;-143.84;94.56;44000.03;4970660;28;20868;-64
2023/04/19 01:33:17;;;;;;;22.93;13.70;;;;;;;-143.84;95.04;44017.16;4970464;28;20480;-64
2023/04/19 01:35:44;;;;;;;22.57;13.50;;;;;;;-143.84;95.13;44024.78;4970528;28;20449;-64
2023/04/19 01:38:11;;;;;;;25.87;14.03;;;;;;;-143.84;95.10;44011.47;4970100;28;20937;-64
2023/04/19 01:40:39;;;;;;;19.60;12.53;;;;;;;-143.84;95.33;44041.91;4969927;28;20500;-64
2023/04/19 01:43:07;;;;;;;21.10;13.17;;;;;;;-143.84;95.42;44040.00;4970218;28;20489;-64
2023/04/19 01:45:35;;;;;;;18.43;14.80;;;;;;;-143.84;95.84;44045.72;4970119;28;20481;-64
2023/04/19 01:48:03;;;;;;;19.60;13.17;;;;;;;-143.84;95.24;44047.63;4970098;28;20952;-64
2023/04/19 01:50:30;;;;;;;16.33;13.43;;;;;;;-143.84;95.73;44051.44;4969931;28;20524;-64
2023/04/19 01:52:58;;;;;;;19.70;14.47;;;;;;;-143.84;96.04;44060.94;4969608;28;20435;-64
2023/04/19 01:55:25;;;;;;;22.07;15.10;;;;;;;-143.84;95.96;44060.94;4969083;28;20971;-64
2023/04/19 01:57:53;;;;;;;17.77;13.10;;;;;;;-143.84;95.89;44059.03;4969692;28;20449;-64
2023/04/19 02:00:21;;;;;;;24.20;14.67;;;;;;;-143.84;96.13;44060.94;4969255;28;20449;-64
2023/04/19 02:02:48;;;;;;;27.08;15.68;;;;;;;-143.84;96.21;44066.66;4969250;28;20447;-64
2023/04/19 02:05:15;;;;;;;25.98;14.48;;;;;;;-143.84;96.16;44051.44;4969774;28;20231;-64
2023/04/19 02:07:42;;;;;;;29.63;15.45;;;;;;;-143.84;95.84;44051.44;4969815;28;20206;-64
2023/04/19 02:10:10;;;;;;;32.70;16.07;;;;;;;-143.84;95.65;44060.94;4970188;28;20351;-64
2023/04/19 02:12:38;;;;;;;28.63;14.30;;;;;;;-143.84;95.41;44049.53;4969882;28;20454;-64
2023/04/19 02:15:08;;;;;;;17.80;13.80;;;;;;;-143.84;95.21;44034.31;4970016;28;20481;-64
2023/04/19 02:17:35;;;;;;;22.43;13.80;;;;;;;-143.84;95.19;44032.41;4969136;28;20493;-64
2023/04/19 02:20:04;;;;;;;28.30;14.30;;;;;;;-143.84;95.26;44030.50;4969575;28;20525;-64
2023/04/19 02:22:31;;;;;;;26.57;13.43;;;;;;;-143.84;94.89;44024.78;4969845;28;20465;-64
2023/04/19 02:24:58;;;;;;;21.13;14.25;;;;;;;-143.84;95.18;44040.00;4969763;28;20449;-64
2023/04/19 02:27:25;;;;;;;21.90;13.40;;;;;;;-143.84;95.07;44036.22;4969825;28;20264;-65
2023/04/19 02:29:52;;;;;;;19.67;13.37;;;;;;;-143.84;94.80;44030.50;4969839;28;20449;-65
2023/04/19 02:32:20;;;;;;;21.27;13.70;;;;;;;-143.84;94.93;44026.69;4969582;28;20453;-64
2023/04/19 02:34:48;;;;;;;16.10;13.30;;;;;;;-143.84;95.36;44051.44;4969595;28;20485;-65
2023/04/19 02:37:15;;;;;;;20.40;13.77;;;;;;;-143.84;95.44;44043.81;4969726;28;20447;-65
2023/04/19 02:39:42;;;;;;;16.93;13.70;;;;;;;-143.84;95.80;44057.16;4969859;28;20441;-65
2023/04/19 02:42:09;;;;;;;16.93;13.63;;;;;;;-143.84;95.81;44057.16;4969411;28;20434;-65
2023/04/19 02:44:36;;;;;;;19.47;13.87;;;;;;;-143.84;95.94;44051.44;4969763;28;20442;-64
2023/04/19 02:47:03;;;;;;;17.60;12.00;;;;;;;-143.84;95.93;44062.84;4969512;28;20495;-65
2023/04/19 02:49:35;;;;;;;25.13;13.70;;;;;;;-143.84;95.64;44053.34;4969794;28;20442;-65
2023/04/19 02:52:02;;;;;;;14.18;11.57;;;;;;;-143.84;95.63;44051.44;4972063;28;20947;-64
2023/04/19 02:54:29;;;;;;;19.53;12.93;;;;;;;-143.84;95.60;44053.34;4973313;28;20211;-65
2023/04/19 02:56:56;;;;;;;16.50;12.93;;;;;;;-143.84;95.30;44051.44;4972995;28;20507;-65
2023/04/19 02:59:23;;;;;;;21.30;13.60;;;;;;;-143.84;95.54;44043.81;4973090;28;20440;-65
2023/04/19 03:01:50;;;;;;;24.80;14.30;;;;;;;-143.84;95.18;44024.78;4973223;28;20449;-65
2023/04/19 03:04:17;;;;;;;31.53;13.43;;;;;;;-143.84;95.22;44032.41;4972873;28;21007;-65
2023/04/19 03:06:46;;;;;;;16.63;12.03;;;;;;;-143.84;95.19;44036.22;4972914;28;20578;-65
2023/04/19 03:09:13;;;;;;;16.73;12.43;;;;;;;-143.84;95.23;44026.69;4972829;28;20445;-65
2023/04/19 03:11:40;;;;;;;17.50;12.63;;;;;;;-143.84;95.08;44028.59;4972521;28;20441;-65
2023/04/19 03:14:07;;;;;;;14.70;12.40;;;;;;;-143.84;94.73;44045.72;4972785;28;20450;-65
2023/04/19 03:16:35;;;;;;;20.27;12.73;;;;;;;-143.84;95.15;44028.59;4972638;28;20947;-65
2023/04/19 03:19:02;;;;;;;19.37;12.40;;;;;;;-143.84;94.77;44032.41;4972649;28;20516;-65
2023/04/19 03:21:29;;;;;;;20.57;12.53;;;;;;;-143.84;95.11;44032.41;4955854;28;20515;-64
2023/04/19 03:23:58;;;;;;;18.40;12.97;;;;;;;-143.84;94.92;44022.88;4953216;28;20948;-65
2023/04/19 03:26:25;;;;;;;16.63;12.23;;;;;;;-143.84;94.88;44028.59;4953015;29;20485;-64
2023/04/19 03:28:52;;;;;;;24.10;13.75;;;;;;;-143.84;95.05;44032.41;4953340;28;20493;-64
2023/04/19 03:31:20;;;;;;;15.87;12.27;;;;;;;-143.84;94.84;44040.00;4953347;29;21002;-64
2023/04/19 03:33:47;;;;;;;17.77;12.90;;;;;;;-143.84;94.91;44026.69;4952841;29;20438;-64
2023/04/19 03:36:14;;;;;;;16.83;12.23;;;;;;;-143.84;94.50;44009.56;4952745;28;20454;-63
2023/04/19 03:38:42;;;;;;;19.80;11.13;;;;;;;-143.84;94.44;44019.06;4952894;28;20451;-64
2023/04/19 03:41:20;;;;;;;18.07;11.37;;;;;;;-143.84;94.33;44001.94;4952789;29;20455;-64
2023/04/19 03:43:47;;;;;;;20.13;13.53;;;;;;;-143.84;94.53;44020.97;4968702;28;21272;-64
2023/04/19 03:46:14;;;;;;;18.17;11.57;;;;;;;-143.84;94.36;44013.38;4970999;28;21045;-63
2023/04/19 03:48:41;;;;;;;17.07;13.30;;;;;;;-143.84;94.31;44020.97;4972095;28;20442;-64
2023/04/19 03:51:08;;;;;;;14.83;12.40;;;;;;;-143.84;94.62;44007.66;4972172;28;20438;-64
2023/04/19 03:53:36;;;;;;;22.17;13.23;;;;;;;-143.84;94.27;43998.13;4972146;28;20496;-64
2023/04/19 03:56:03;;;;;;;15.43;11.57;;;;;;;-143.84;94.48;44009.56;4972121;28;20799;-65
2023/04/19 03:58:31;;;;;;;31.70;12.70;;;;;;;-143.84;94.18;43990.53;4972047;28;20467;-65
2023/04/19 04:01:00;;;;;;;21.13;13.23;;;;;;;-143.84;94.59;43998.13;4971626;28;20449;-65
2023/04/19 04:03:27;;;;;;;15.60;12.40;;;;;;;-143.84;94.27;43990.53;4971290;28;20204;-65
2023/04/19 04:05:54;;;;;;;20.90;11.17;;;;;;;-143.84;94.48;44013.38;4973974;28;20543;-65
2023/04/19 04:08:21;;;;;;;17.10;13.63;;;;;;;-143.84;94.36;43998.13;4971780;28;20501;-65
2023/04/19 04:10:48;;;;;;;15.83;12.47;;;;;;;-143.84;93.90;43981.00;4973215;28;20504;-65
2023/04/19 04:13:15;;;;;;;18.50;11.43;;;;;;;-143.84;93.54;43963.88;4976417;28;20448;-64
2023/04/19 04:15:44;;;;;;;17.90;13.50;;;;;;;-143.84;93.37;43960.06;4971540;28;20472;-65
2023/04/19 04:18:11;;;;;;;14.23;12.20;;;;;;;-143.84;93.55;43979.09;4971286;28;20494;-65
2023/04/19 04:20:38;;;;;;;15.80;12.13;;;;;;;-143.84;93.91;43981.00;4971489;28;21018;-64
2023/04/19 04:23:06;;;;;;;18.50;12.43;;;;;;;-143.84;93.45;43986.72;4971829;28;20556;-64
2023/04/19 04:25:36;;;;;;;16.25;11.90;;;;;;;-143.84;93.62;43981.00;4971308;28;20456;-64
2023/04/19 04:28:03;;;;;;;12.53;10.70;;;;;;;-143.84;93.52;43960.06;4971151;28;20205;-64
2023/04/19 04:30:30;;;;;;;16.83;11.70;;;;;;;-143.84;93.15;43958.16;4976101;28;20444;-64
2023/04/19 04:32:59;;;;;;;13.53;10.27;;;;;;;-143.84;93.22;43948.63;4981358;28;20557;-64
2023/04/19 04:35:28;;;;;;;12.33;10.27;;;;;;;-143.84;93.40;43984.81;4976064;28;20537;-64
2023/04/19 04:37:55;;;;;;;13.70;9.87;;;;;;;-143.84;93.28;43965.78;4973890;28;20548;-64
2023/04/19 04:40:23;;;;;;;14.50;10.67;;;;;;;-143.84;93.09;43961.97;4984686;28;20437;-64
2023/04/19 04:42:51;;;;;;;16.38;10.00;;;;;;;-143.84;93.04;43967.69;4980322;28;20527;-64
2023/04/19 04:45:18;;;;;;;11.00;9.17;;;;;;;-143.84;93.17;43973.38;4970807;28;21010;-64
2023/04/19 04:47:46;;;;;;;10.77;8.50;;;;;;;-143.84;93.26;43975.28;4970899;28;20613;-64
2023/04/19 04:50:14;;;;;;;13.73;10.07;;;;;;;-143.84;93.02;43958.16;4971165;28;20528;-65
2023/04/19 04:52:42;;;;;;;10.27;9.20;;;;;;;-143.84;93.18;43956.25;4970186;28;20217;-64
2023/04/19 04:55:10;;;;;;;12.50;9.50;;;;;;;-143.84;92.81;43941.03;4970663;28;20665;-65
2023/04/19 04:57:37;;;;;;;11.23;8.67;;;;;;;-143.84;92.85;43939.13;4971174;28;20440;-65
2023/04/19 05:00:05;;;;;;;7.57;6.88;;;;;;;-143.84;92.68;43941.03;4970924;28;20495;-64
2023/04/19 05:02:32;;;;;;;7.73;7.07;;;;;;;-143.84;92.55;43929.59;4970882;28;20206;-65
2023/04/19 05:04:59;;;;;;;11.33;6.90;;;;;;;-143.84;92.72;43952.44;4971012;28;20508;-65
2023/04/19 05:07:28;;;;;;;8.00;7.20;;;;;;;-143.84;92.61;43946.75;4970547;28;20485;-64
2023/04/19 05:09:55;;;;;;;6.43;5.73;;;;;;;-143.84;92.71;43956.25;4970516;28;20446;-64
2023/04/19 05:12:22;;;;;;;7.50;6.50;;;;;;;-143.84;93.17;43965.78;4970621;28;20447;-65
2023/04/19 05:14:50;;;;;;;5.50;5.10;;;;;;;-143.84;92.86;43952.44;4969793;28;20503;-65
2023/04/19 05:17:17;;;;;;;4.17;3.87;;;;;;;-143.84;92.29;43929.59;4970267;28;20262;-64
2023/04/19 05:19:44;;;;;;;5.23;4.50;;;;;;;-143.84;92.66;43952.44;4970168;28;20936;-64
2023/04/19 05:22:11;;;;;;;4.77;4.47;;;;;;;-143.84;93.03;43954.34;4970485;28;20444;-64
2023/04/19 05:24:40;;;;;;;4.67;4.27;;;;;;;-143.84;92.97;43952.44;4970338;28;20440;-64
2023/04/19 05:27:08;;;;;;;4.97;4.60;;;;;;;-143.84;93.11;43956.25;4970329;28;20481;-64
2023/04/19 05:29:35;;;;;;;5.53;5.13;;;;;;;-143.84;93.51;43965.78;4970334;28;20471;-64
2023/04/19 05:32:02;;;;;;;5.37;4.87;;;;;;;-143.84;93.26;43944.84;4970326;28;20198;-64
2023/04/19 05:34:30;;;;;;;5.45;4.95;;;;;;;-143.84;93.07;43960.06;4970512;28;20819;-64
2023/04/19 05:36:57;;;;;;;6.33;5.10;;;;;;;-143.84;93.09;43952.44;4970218;28;20210;-64
2023/04/19 05:39:24;;;;;;;6.13;5.63;;;;;;;-143.84;93.05;43939.13;4970248;28;20451;-64
2023/04/19 05:41:53;;;;;;;8.10;6.27;;;;;;;-143.84;92.87;43925.78;4969993;28;20438;-64
2023/04/19 05:44:20;;;;;;;8.67;6.67;;;;;;;-143.84;93.11;43960.06;4970099;28;20905;-64
2023/04/19 05:46:47;;;;;;;6.20;5.70;;;;;;;-143.84;93.08;43941.03;4970480;28;20837;-64
2023/04/19 05:49:14;;;;;;;7.40;6.30;;;;;;;-143.84;93.23;43948.63;4970320;28;20504;-64
2023/04/19 05:51:41;;;;;;;5.97;5.37;;;;;;;-143.84;93.11;43931.50;4970009;28;20441;-64
2023/04/19 05:54:11;;;;;;;6.87;5.20;;;;;;;-143.84;92.81;43954.34;4969955;28;20437;-65
2023/04/19 05:56:38;;;;;;;6.77;6.10;;;;;;;-143.84;93.19;43933.41;4970034;28;21032;-65
2023/04/19 05:59:07;;;;;;;6.67;6.10;;;;;;;-143.84;93.21;43965.78;4969982;28;21293;-64
2023/04/19 06:01:34;;;;;;;6.63;5.93;;;;;;;-143.84;93.07;43960.06;4969811;28;20450;-65
2023/04/19 06:04:01;;;;;;;7.47;6.63;;;;;;;-143.84;92.91;43944.84;4969744;28;20446;-64
2023/04/19 06:06:28;;;;;;;8.60;7.20;;;;;;;-143.84;92.88;43937.22;4969581;28;20552;-64
2023/04/19 06:08:55;;;;;;;8.43;7.63;;;;;;;-143.84;92.85;43927.69;4969885;28;20446;-64
2023/04/19 06:11:23;;;;;;;9.30;7.03;;;;;;;-143.84;92.23;43929.59;4969926;28;20500;-64
2023/04/19 06:13:50;;;;;;;5.60;5.10;;;;;;;-143.84;92.62;43948.63;4969853;28;21243;-65
2023/04/19 06:16:19;;;;;;;6.67;6.13;;;;;;;-143.84;92.59;43944.84;4970014;28;20635;-65
2023/04/19 06:18:46;;;;;;;7.72;6.05;;;;;;;-143.84;92.67;43941.03;4969039;28;20492;-65
2023/04/19 06:21:13;;;;;;;6.37;5.73;;;;;;;-143.84;92.56;43927.69;4969049;28;20255;-64
2023/04/19 06:23:41;;;;;;;5.67;5.17;;;;;;;-143.84;92.73;43937.22;4969508;28;20448;-64
2023/04/19 06:26:08;;;;;;;6.87;6.03;;;;;;;-143.84;92.79;43935.31;4970297;28;20944;-64
2023/04/19 06:28:35;;;;;;;5.87;5.37;;;;;;;-143.84;92.80;43944.84;4972682;28;20433;-64
2023/04/19 06:31:02;;;;;;;8.27;7.47;;;;;;;-143.84;92.80;43929.59;4972932;28;20502;-64
2023/04/19 06:33:31;;;;;;;7.50;6.80;;;;;;;-143.84;92.83;43944.84;4973057;28;20512;-64
2023/04/19 06:36:01;;;;;;;9.80;7.77;;;;;;;-143.84;92.66;43965.78;4973662;28;20512;-65
2023/04/19 06:38:28;;;;;;;9.10;7.83;;;;;;;-143.84;92.57;43927.69;4973722;28;20438;-64
2023/04/19 06:40:55;;;;;;;9.10;8.00;;;;;;;-143.84;92.66;43935.31;4973669;28;20448;-64
2023/04/19 06:43:24;;;;;;;7.23;6.67;;;;;;;-143.84;92.71;43946.75;4973239;28;20443;-64
2023/04/19 06:45:58;;;;;;;8.37;6.83;;;;;;;-143.84;92.79;43939.13;4973598;28;20438;-64
2023/04/19 06:48:26;;;;;;;11.83;7.40;;;;;;;-143.84;91.94;43906.75;4973287;28;20473;-64
2023/04/19 06:50:55;;;;;;;7.33;5.63;;;;;;;-143.84;91.70;43891.53;4973115;28;20454;-65
2023/04/19 06:53:22;;;;;;;7.13;6.53;;;;;;;-143.84;91.93;43908.66;4973231;28;20451;-65
2023/04/19 06:55:49;;;;;;;7.70;7.00;;;;;;;-143.84;92.19;43922.00;4972705;28;20776;-65
2023/04/19 06:58:16;;;;;;;7.87;7.07;;;;;;;-143.84;91.61;43922.00;4972760;28;20457;-65
2023/04/19 07:00:43;;;;;;;7.87;7.17;;;;;;;-143.84;91.96;43922.00;4973060;28;20442;-65
2023/04/19 07:03:11;;;;;;;9.10;6.73;;;;;;;-143.84;92.13;43914.38;4973053;28;20438;-65
2023/04/19 07:05:38;;;;;;;7.80;6.70;;;;;;;-143.84;91.61;43887.72;4972925;28;20450;-64
2023/04/19 07:08:06;;;;;;;6.00;5.50;;;;;;;-143.84;91.02;43883.91;4973103;28;20523;-64
2023/04/19 07:10:33;;;;;;;7.27;6.57;;;;;;;-143.84;91.21;43880.13;4972768;28;20449;-64
2023/04/19 07:13:00;;;;;;;7.17;6.47;;;;;;;-143.84;91.29;43887.72;4972703;28;20450;-64
2023/04/19 07:15:28;;;;;;;6.90;6.20;;;;;;;-143.84;91.02;43897.25;4972802;28;20449;-65
2023/04/19 07:17:55;;;;;;;7.50;6.77;;;;;;;-143.84;91.21;43895.34;4972334;28;20535;-64
2023/04/19 07:20:22;;;;;;;7.43;6.73;;;;;;;-143.84;91.42;43891.53;4972543;28;20446;-64
2023/04/19 07:22:49;;;;;;;7.10;6.50;;;;;;;-143.84;91.89;43918.19;4972216;28;21112;-64
2023/04/19 07:25:18;;;;;;;7.43;6.75;;;;;;;-143.84;91.98;43893.44;4972046;28;20445;-64
2023/04/19 07:27:45;;;;;;;6.30;5.80;;;;;;;-143.84;91.72;43899.16;4972331;28;20226;-64
2023/04/19 07:30:12;;;;;;;6.30;5.70;;;;;;;-143.84;91.43;43904.84;4972494;28;20434;-65
2023/04/19 07:32:39;;;;;;;8.20;5.60;;;;;;;-143.84;90.83;43872.50;4972734;28;20520;-65
2023/04/19 07:35:07;;;;;;;6.60;6.00;;;;;;;-143.84;90.04;43861.06;4972490;28;20447;-64
2023/04/19 07:37:34;;;;;;;8.30;6.93;;;;;;;-143.84;89.20;43832.53;4972187;28;20449;-64
2023/04/19 07:40:02;;;;;;;7.28;4.78;;;;;;;-143.84;88.53;43853.47;4972300;28;20449;-64
2023/04/19 07:42:31;;;;;;;5.10;4.60;;;;;;;-143.84;88.44;43868.69;4972602;28;20652;-64
2023/04/19 07:44:59;;;;;;;7.07;4.80;;;;;;;-143.84;88.30;43855.38;4972097;28;20447;-64
2023/04/19 07:47:26;;;;;;;7.93;4.70;;;;;;;-143.84;88.64;43828.72;4971700;28;21191;-64
2023/04/19 07:49:53;;;;;;;12.53;4.80;;;;;;;-143.84;89.25;43828.72;4971374;28;20972;-65
2023/04/19 07:52:20;;;;;;;3.23;2.90;;;;;;;-143.84;88.56;43823.00;4971911;28;20441;-64
2023/04/19 07:54:47;;;;;;;2.90;2.70;;;;;;;-143.84;88.61;43830.63;4972329;28;20448;-64
2023/04/19 07:57:14;;;;;;;3.00;2.80;;;;;;;-143.84;88.33;43851.56;4972243;28;20520;-64
2023/04/19 07:59:43;;;;;;;3.93;2.63;;;;;;;-143.84;88.93;43851.56;4971953;28;20449;-64
2023/04/19 08:02:17;;;;;;;6.68;2.33;;;;;;;-143.84;89.60;43832.53;4972288;28;20472;-64
2023/04/19 08:04:47;;;;;;;7.13;2.40;;;;;;;-143.84;89.68;43857.28;4971854;28;20204;-64
2023/04/19 08:07:14;;;;;;;2.50;2.30;;;;;;;-143.84;90.12;43855.38;4971681;28;20492;-64
2023/04/19 08:09:41;;;;;;;2.90;2.63;;;;;;;-143.84;89.64;43862.97;4971614;28;20449;-64
2023/04/19 08:12:08;;;;;;;4.60;3.03;;;;;;;-143.84;90.07;43861.06;4971659;28;20478;-64
2023/04/19 08:14:37;;;;;;;3.25;2.83;;;;;;;-143.84;90.12;43859.19;4971190;28;20469;-64
2023/04/19 08:17:06;;;;;;;3.33;3.13;;;;;;;-143.84;89.47;43826.81;4971514;28;20232;-64
2023/04/19 08:19:33;;;;;;;2.47;2.20;;;;;;;-143.84;89.95;43859.19;4971578;28;20450;-64
2023/04/19 08:22:01;;;;;;;3.43;3.13;;;;;;;-143.84;90.07;43864.88;4971599;28;20211;-64
2023/04/19 08:24:30;;;;;;;2.70;2.60;;;;;;;-143.84;90.24;43855.38;4971494;28;20443;-64
2023/04/19 08:26:57;;;;;;;2.90;2.70;;;;;;;-143.84;90.14;43824.91;4971150;28;20454;-64
2023/04/19 08:29:24;;;;;;;3.40;3.20;;;;;;;-143.84;90.69;43861.06;4971426;28;20531;-64
2023/04/19 08:31:51;;;;;;;2.70;2.60;;;;;;;-143.84;90.63;43878.22;4971740;28;20441;-64
2023/04/19 08:34:20;;;;;;;2.53;2.33;;;;;;;-143.84;90.46;43866.78;4971453;28;20209;-64
2023/04/19 08:36:47;;;;;;;2.10;2.00;;;;;;;-143.84;89.81;43845.84;4971176;28;20450;-64
2023/04/19 08:39:14;;;;;;;2.33;2.23;;;;;;;-143.84;89.96;43859.19;4971406;28;20433;-64
2023/04/19 08:41:41;;;;;;;2.50;2.40;;;;;;;-143.84;90.22;43838.25;4971304;28;20453;-64
2023/04/19 08:44:11;;;;;;;3.63;2.33;;;;;;;-143.84;90.56;43862.97;4971132;28;20441;-64
2023/04/19 08:46:39;;;;;;;2.23;1.80;;;;;;;-143.84;90.03;43847.75;4971080;28;20202;-64
2023/04/19 08:49:06;;;;;;;1.80;1.70;;;;;;;-143.84;89.54;43838.25;4970391;28;20479;-64
2023/04/19 08:51:35;;;;;;;1.57;1.47;;;;;;;-143.84;89.58;43817.31;4970894;28;20446;-64
2023/04/19 08:54:06;;;;;;;1.63;1.53;;;;;;;-143.84;88.84;43819.19;4970599;28;20449;-64
2023/04/19 08:56:33;;;;;;;1.20;1.10;;;;;;;-143.84;88.71;43840.13;4970774;28;20444;-64
2023/04/19 08:59:00;;;;;;;2.60;1.00;;;;;;;-143.84;87.63;43941.03;4970860;28;21010;-63
2023/04/19 09:01:28;;;;;;;1.00;0.90;;;;;;;-143.84;88.12;43872.50;4970863;28;20446;-64
2023/04/19 09:03:55;;;;;;;1.48;1.15;;;;;;;-143.84;88.81;43882.00;4970585;28;20441;-63
2023/04/19 09:06:22;;;;;;;1.00;0.90;;;;;;;-143.84;88.47;43889.63;4970797;28;20193;-64
2023/04/19 09:08:56;;;;;;;1.77;1.00;;;;;;;-143.84;88.92;43857.28;4970661;28;20481;-63
2023/04/19 09:11:37;;;;;;;1.20;0.90;;;;;;;-143.84;89.04;43824.91;4970822;28;20264;-64
2023/04/19 09:14:09;;;;;;;1.20;1.00;;;;;;;-143.84;88.71;43847.75;4970767;28;20441;-64
2023/04/19 09:16:37;;;;;;;1.10;1.00;;;;;;;-143.84;87.94;43876.31;4970189;28;20454;-64
2023/04/19 09:19:04;;;;;;;1.10;0.80;;;;;;;-143.84;87.57;43918.19;4970391;28;21291;-64
2023/04/19 09:21:32;;;;;;;1.10;0.80;;;;;;;-143.84;86.54;44099.03;4970328;28;20434;-64
2023/04/19 09:24:00;;;;;;;0.90;0.70;;;;;;;-143.84;86.87;44001.94;4971093;28;20450;-63
2023/04/19 09:26:29;;;;;;;1.00;0.90;;;;;;;-143.84;87.10;43941.03;4970557;28;20442;-64
2023/04/19 09:28:57;;;;;;;1.43;0.80;;;;;;;-143.84;87.02;44003.84;4970359;28;20479;-64
2023/04/19 09:31:26;;;;;;;1.70;1.60;;;;;;;-143.84;86.20;44148.53;4970790;28;20795;-64
2023/04/19 09:33:54;;;;;;;1.00;0.90;;;;;;;-143.84;85.84;44262.75;4970655;28;20449;-64
2023/04/19 09:36:28;;;;;;;1.10;1.00;;;;;;;-143.84;86.08;44180.88;4970247;28;20446;-64
2023/04/19 09:38:55;;;;;;;0.90;0.80;;;;;;;-143.84;86.22;44178.97;4970407;28;20299;-64
2023/04/19 09:41:24;;;;;;;1.50;0.95;;;;;;;-143.84;86.24;44173.25;4970519;28;20445;-64
2023/04/19 09:43:51;;;;;;;1.07;0.97;;;;;;;-143.84;86.02;44102.84;4970160;28;20209;-64
2023/04/19 09:46:34;;;;;;;1.10;0.80;;;;;;;-143.84;86.05;44180.88;4969788;28;20437;-64
2023/04/19 09:49:23;;;;;;;2.50;0.80;;;;;;;-143.84;85.74;44291.28;4967995;28;20497;-64
2023/04/19 09:51:52;;;;;;;0.90;0.70;;;;;;;-143.84;85.78;44260.84;4965657;28;20884;-64
2023/04/19 09:54:20;;;;;;;1.00;0.90;;;;;;;-143.84;85.82;44232.28;4970184;28;20194;-64
2023/04/19 09:56:49;;;;;;;0.80;0.60;;;;;;;-143.84;85.05;44483.56;4970104;28;20449;-64
2023/04/19 09:59:17;;;;;;;0.93;0.73;;;;;;;-143.84;84.52;44685.38;4970070;28;20495;-64
2023/04/19 10:01:46;;;;;;;1.17;1.07;;;;;;;-143.84;84.85;44580.69;4974012;28;20512;-64
2023/04/19 10:04:20;;;;;;;1.00;0.80;;;;;;;-143.84;85.04;44548.31;4974408;28;20442;-63
2023/04/19 10:06:49;;;;;;;1.10;1.00;;;;;;;-143.84;84.83;44605.44;4974085;28;20532;-63
2023/04/19 10:09:17;;;;;;;1.10;0.80;;;;;;;-143.84;84.26;44689.19;4974009;28;20493;-63
2023/04/19 10:11:52;;;;;;;1.50;0.93;;;;;;;-143.84;84.40;44664.44;4973511;28;20449;-63
2023/04/19 10:14:23;;;;;;;1.67;1.17;;;;;;;-143.84;84.84;44565.44;4974015;28;20531;-63
2023/04/19 10:16:51;;;;;;;1.17;1.00;;;;;;;-143.84;85.53;44371.25;4973914;28;20610;-63
2023/04/19 10:19:22;;;;;;;2.20;0.93;;;;;;;-143.84;85.36;44394.09;4973917;28;20438;-64
2023/04/19 10:21:55;;;;;;;1.00;0.70;;;;;;;-143.84;84.12;44748.22;4973736;28;20494;-64
2023/04/19 10:24:23;;;;;;;0.90;0.70;;;;;;;-143.84;84.49;44632.09;4973859;28;20470;-63
2023/04/19 10:27:11;;;;;;;0.90;0.80;;;;;;;-143.84;84.81;44554.03;4973637;28;20504;-63
2023/04/19 10:30:01;;;;;;;0.90;0.63;;;;;;;-143.84;84.29;44689.19;4973549;28;20489;-63
2023/04/19 10:32:29;;;;;;;1.10;0.80;;;;;;;-143.84;84.23;44708.25;4969498;28;20460;-63
2023/04/19 10:35:01;;;;;;;1.20;0.80;;;;;;;;;;4973503;28;20444;-64
2023/04/19 10:37:28;;;;;;;0.97;0.87;;;;;;;-143.84;83.63;44820.56;4973282;28;20504;-64
2023/04/19 10:39:55;;;;;;;1.27;0.90;;;;;;;-143.84;83.21;44896.75;4973080;28;20455;-64
2023/04/19 10:42:24;;;;;;;1.13;1.03;;;;;;;-143.84;83.23;44864.38;4973099;28;20448;-64
2023/04/19 10:45:28;;;;;;;1.17;1.07;;;;;;;-143.84;82.67;44896.75;4972507;28;20944;-64
2023/04/19 10:47:55;;;;;;;1.60;1.17;;;;;;;-143.84;82.72;44911.97;4972744;28;20480;-64
2023/04/19 10:50:24;;;;;;;4.40;1.03;;;;;;;-143.84;82.43;44929.09;4972515;28;20978;-64
2023/04/19 10:52:51;;;;;;;2.70;1.37;;;;;;;-143.84;82.65;44906.25;4972338;28;20513;-64
2023/04/19 10:55:19;;;;;;;1.57;1.33;;;;;;;-143.84;82.72;44927.19;4973094;28;20578;-64
2023/04/19 10:58:07;;;;;;;1.37;1.27;;;;;;;-143.84;82.58;44902.44;4973228;28;20556;-64
2023/04/19 11:00:35;;;;;;;1.80;1.60;;;;;;;-143.84;82.55;44934.81;4973398;28;21406;-64
2023/04/19 11:03:41;;;;;;;1.60;1.47;;;;;;;-143.84;82.50;44946.25;4973218;28;20764;-64
2023/04/19 11:06:20;;;;;;;1.70;1.60;;;;;;;-143.84;82.71;44948.16;4972992;28;20839;-64
2023/04/19 11:08:47;;;;;;;1.50;1.40;;;;;;;-143.84;82.50;44944.34;4973015;28;20617;-64
2023/04/19 11:11:15;;;;;;;3.30;1.50;;;;;;;-143.84;82.88;44910.06;4972381;28;20449;-64
2023/04/19 11:13:43;;;;;;;1.23;1.13;;;;;;;-143.84;83.23;44875.78;4972694;28;20537;-64
2023/04/19 11:16:11;;;;;;;5.90;1.50;;;;;;;-143.84;83.29;44873.88;4973024;28;20924;-64
2023/04/19 11:18:38;;;;;;;1.87;1.63;;;;;;;-143.84;82.67;44902.44;4972598;28;21023;-64